Time;durP1;ratioP1;P1;durP2;ratioP2;P2;SDS_P1;SDS_P2;PMS_P1;PMS_P2;Temp;Humidity;BMP_temperature;BMP_pressure;BME280_temperature;BME280_humidity;BME280_pressure;Samples;Min_cycle;Max_cycle;Signal;HPM_P1;HPM_P2
2022/11/19 00:01:06;;;;;;;4.47;2.83;;;1.30;99.90;;;;;;4988984;28;20046;-76
2022/11/19 00:03:33;;;;;;;4.72;2.83;;;1.40;99.90;;;;;;4971734;28;20125;-76
2022/11/19 00:06:13;;;;;;;3.50;2.92;;;1.40;99.90;;;;;;4989568;28;20046;-74
2022/11/19 00:08:39;;;;;;;3.72;2.67;;;1.40;99.90;;;;;;4971770;28;20115;-77
2022/11/19 00:11:13;;;;;;;5.47;3.53;;;1.40;99.90;;;;;;4971778;28;20046;-77
2022/11/19 00:13:41;;;;;;;4.75;3.03;;;1.40;99.90;;;;;;4987837;28;20053;-76
2022/11/19 00:16:11;;;;;;;4.70;3.28;;;1.40;99.90;;;;;;4989021;28;20306;-76
2022/11/19 00:18:37;;;;;;;4.75;3.42;;;1.40;99.90;;;;;;4955183;28;20086;-76
2022/11/19 00:21:12;;;;;;;5.72;3.03;;;1.40;99.90;;;;;;4988680;28;20084;-75
2022/11/19 00:23:38;;;;;;;4.78;3.47;;;1.40;99.90;;;;;;4988000;28;20047;-77
2022/11/19 00:26:09;;;;;;;21.73;4.40;;;1.40;99.90;;;;;;4988769;28;20386;-76
2022/11/19 00:28:36;;;;;;;2.88;2.38;;;1.40;99.90;;;;;;4987868;28;20477;-75
2022/11/19 00:31:04;;;;;;;4.60;3.25;;;1.30;99.90;;;;;;4988837;28;20042;-75
2022/11/19 00:33:30;;;;;;;5.60;2.83;;;1.30;99.90;;;;;;4988667;28;20066;-76
2022/11/19 00:35:57;;;;;;;3.17;2.83;;;1.30;99.90;;;;;;4988713;28;20077;-77
2022/11/19 00:38:23;;;;;;;4.28;2.10;;;1.40;99.90;;;;;;4987902;28;20100;-77
2022/11/19 00:40:49;;;;;;;3.25;2.53;;;1.20;99.90;;;;;;4971715;28;20133;-76
2022/11/19 00:45:59;;;;;;;4.80;3.03;;;1.20;99.90;;;;;;4989425;28;20042;-77
2022/11/19 00:48:24;;;;;;;3.65;2.72;;;1.30;99.90;;;;;;4971096;28;20694;-76
2022/11/19 00:50:50;;;;;;;5.57;3.65;;;1.30;99.90;;;;;;4988766;28;20048;-75
2022/11/19 00:53:16;;;;;;;5.05;2.83;;;1.20;99.90;;;;;;4988358;28;20423;-76
2022/11/19 00:55:41;;;;;;;4.97;3.92;;;1.20;99.90;;;;;;4987566;28;20174;-77
2022/11/19 00:58:07;;;;;;;4.50;3.15;;;1.20;99.90;;;;;;4988398;28;20049;-77
2022/11/19 01:00:33;;;;;;;4.03;2.28;;;1.10;99.90;;;;;;4986785;28;20042;-75
2022/11/19 01:02:58;;;;;;;5.97;3.95;;;1.20;99.90;;;;;;4987993;28;20452;-77
2022/11/19 01:05:24;;;;;;;6.15;3.20;;;1.00;99.90;;;;;;4987642;28;20070;-77
2022/11/19 01:07:52;;;;;;;3.80;2.67;;;1.10;99.90;;;;;;4987832;28;20056;-77
2022/11/19 01:10:18;;;;;;;5.18;3.08;;;1.00;99.90;;;;;;4987289;28;20469;-77
2022/11/19 01:15:28;;;;;;;4.43;2.58;;;1.00;99.90;;;;;;4986949;28;20046;-76
2022/11/19 01:17:53;;;;;;;6.03;3.97;;;1.00;99.90;;;;;;4987883;28;20089;-75
2022/11/19 01:20:19;;;;;;;4.47;3.33;;;1.00;99.90;;;;;;4987767;28;20121;-76
2022/11/19 01:22:45;;;;;;;3.05;2.45;;;0.90;99.90;;;;;;4988080;28;20140;-75
2022/11/19 01:25:11;;;;;;;5.53;3.22;;;0.90;99.90;;;;;;4987673;28;20505;-76
2022/11/19 01:27:37;;;;;;;5.15;3.40;;;1.00;99.90;;;;;;4987940;28;20042;-76
2022/11/19 01:30:04;;;;;;;5.85;4.03;;;0.90;99.90;;;;;;4987342;28;20457;-77
2022/11/19 01:32:30;;;;;;;8.45;4.32;;;0.80;99.90;;;;;;4987290;28;20096;-76
2022/11/19 01:34:55;;;;;;;3.63;2.83;;;0.70;99.90;;;;;;4987931;28;20043;-76
2022/11/19 01:37:21;;;;;;;5.63;2.97;;;0.60;99.90;;;;;;4969567;28;20390;-77
2022/11/19 01:39:47;;;;;;;5.00;3.60;;;0.60;99.90;;;;;;4987660;28;20065;-76
2022/11/19 01:45:30;;;;;;;5.10;3.10;;;0.50;99.90;;;;;;4987300;28;20117;-76
2022/11/19 01:48:05;;;;;;;5.45;3.22;;;0.40;99.90;;;;;;4987365;28;20085;-76
2022/11/19 01:50:36;;;;;;;5.07;3.05;;;0.40;99.90;;;;;;4987036;28;20042;-76
2022/11/19 01:53:02;;;;;;;6.72;3.45;;;0.20;99.90;;;;;;4969517;28;20120;-77
2022/11/19 01:55:29;;;;;;;4.68;3.45;;;0.30;99.90;;;;;;4986844;28;20046;-76
2022/11/19 01:57:58;;;;;;;6.93;3.55;;;0.30;99.90;;;;;;4987292;28;20304;-76
2022/11/19 02:00:24;;;;;;;3.35;2.70;;;0.30;99.90;;;;;;4985848;28;20073;-77
2022/11/19 02:02:50;;;;;;;4.75;3.58;;;0.20;99.90;;;;;;4987439;28;20050;-76
2022/11/19 02:05:17;;;;;;;4.90;3.15;;;0.20;99.90;;;;;;4987631;28;20120;-76
2022/11/19 02:07:56;;;;;;;4.38;3.05;;;0.20;99.90;;;;;;5068493;22;20244;-76
2022/11/19 02:10:54;;;;;;;4.15;3.67;;;0.20;99.90;;;;;;5010567;28;20104;-77
2022/11/19 02:13:41;;;;;;;5.50;3.35;;;0.10;99.90;;;;;;5002309;28;20061;-77
2022/11/19 02:16:32;;;;;;;5.05;3.75;;;0.10;99.90;;;;;;5012053;28;20642;-76
2022/11/19 02:19:21;;;;;;;7.32;4.05;;;0.20;99.90;;;;;;5011707;28;20050;-76
2022/11/19 02:22:07;;;;;;;4.95;3.28;;;0.10;99.90;;;;;;5012581;28;20125;-77
2022/11/19 02:24:48;;;;;;;5.03;3.22;;;0.20;99.90;;;;;;5012595;28;20600;-76
2022/11/19 02:27:51;;;;;;;4.75;3.28;;;0.10;99.90;;;;;;5010779;28;20153;-75
2022/11/19 02:30:18;;;;;;;7.40;3.85;;;0.10;99.90;;;;;;4976449;28;20373;-76
2022/11/19 02:32:56;;;;;;;7.75;4.72;;;0.10;99.90;;;;;;5010757;28;20045;-77
2022/11/19 02:35:48;;;;;;;5.43;3.53;;;0.10;99.90;;;;;;5010356;28;20052;-75
2022/11/19 02:38:32;;;;;;;7.78;3.50;;;0.00;99.90;;;;;;5011005;28;20133;-75
2022/11/19 02:41:35;;;;;;;8.80;4.82;;;0.00;99.90;;;;;;4991026;28;20121;-76
2022/11/19 02:47:10;;;;;;;6.00;3.30;;;-0.10;99.90;;;;;;4986949;28;20056;-76
2022/11/19 02:49:42;;;;;;;6.63;4.43;;;-0.20;99.90;;;;;;4998113;28;20033;-76
2022/11/19 02:52:08;;;;;;;6.35;4.13;;;-0.20;99.90;;;;;;5024206;28;20084;-75
2022/11/19 02:54:34;;;;;;;5.55;3.58;;;-0.20;99.90;;;;;;5007927;28;20045;-76
2022/11/19 02:57:01;;;;;;;5.03;3.97;;;-0.20;99.90;;;;;;5026227;28;20040;-76
2022/11/19 03:05:10;;;;;;;7.70;3.63;;;-0.30;99.90;;;;;;4987323;28;20048;-77
2022/11/19 03:07:36;;;;;;;5.47;3.33;;;-0.30;99.90;;;;;;5029655;28;20100;-76
2022/11/19 03:10:05;;;;;;;5.63;3.45;;;-0.30;99.90;;;;;;5030043;28;20542;-75
2022/11/19 03:12:49;;;;;;;5.68;3.30;;;-0.20;99.90;;;;;;5030220;28;20044;-77
2022/11/19 03:18:45;;;;;;;5.40;3.47;;;-0.40;99.90;;;;;;5030425;28;20058;-76
2022/11/19 03:21:44;;;;;;;6.80;4.47;;;-0.30;99.90;;;;;;5030288;28;20097;-76
2022/11/19 03:24:19;;;;;;;4.77;3.03;;;-0.40;99.90;;;;;;5030296;28;20094;-75
2022/11/19 03:26:56;;;;;;;5.15;3.40;;;-0.50;99.90;;;;;;5029730;28;20060;-76
2022/11/19 03:29:25;;;;;;;4.85;3.72;;;-0.60;99.90;;;;;;5028949;28;20104;-77
2022/11/19 03:31:59;;;;;;;6.97;4.97;;;-0.50;99.90;;;;;;5030155;28;20055;-75
2022/11/19 03:34:29;;;;;;;4.90;3.30;;;-0.50;99.90;;;;;;5029584;28;20053;-75
2022/11/19 03:36:58;;;;;;;4.85;3.38;;;-0.60;99.90;;;;;;5012158;28;20034;-77
2022/11/19 03:39:24;;;;;;;5.60;3.50;;;-0.60;99.90;;;;;;5029616;28;20132;-75
2022/11/19 03:41:52;;;;;;;6.07;3.40;;;-0.60;99.90;;;;;;5030610;28;20056;-76
2022/11/19 03:44:24;;;;;;;6.60;4.47;;;-0.70;99.90;;;;;;5028043;28;20487;-77
2022/11/19 03:46:56;;;;;;;6.03;3.60;;;-0.70;99.90;;;;;;5029873;28;20085;-75
2022/11/19 03:49:30;;;;;;;7.68;3.92;;;-0.70;99.90;;;;;;5023256;28;20060;-76
2022/11/19 03:52:07;;;;;;;5.97;4.20;;;-0.70;99.90;;;;;;5010112;28;20157;-77
2022/11/19 03:54:33;;;;;;;5.78;3.95;;;-0.80;99.90;;;;;;5009932;28;20053;-77
2022/11/19 03:56:59;;;;;;;5.32;4.20;;;-0.90;99.90;;;;;;5011499;28;20052;-75
2022/11/19 03:59:26;;;;;;;6.00;3.85;;;-0.80;99.90;;;;;;5028637;28;20102;-76
2022/11/19 04:01:55;;;;;;;5.65;3.67;;;-0.90;99.90;;;;;;5029432;28;20057;-77
2022/11/19 04:04:36;;;;;;;4.32;3.13;;;-0.90;99.90;;;;;;5029589;28;20469;-76
2022/11/19 04:07:11;;;;;;;5.85;3.28;;;-0.90;99.90;;;;;;5029466;28;20102;-77
2022/11/19 04:09:38;;;;;;;9.00;4.95;;;-0.90;99.90;;;;;;5022143;28;20038;-76
2022/11/19 04:12:05;;;;;;;6.13;4.45;;;-1.00;99.90;;;;;;5009528;28;20050;-75
2022/11/19 04:14:32;;;;;;;8.63;4.88;;;-1.00;99.90;;;;;;4990959;28;20504;-76
2022/11/19 04:16:58;;;;;;;6.05;4.85;;;-1.00;99.90;;;;;;5009926;28;20227;-76
2022/11/19 04:19:23;;;;;;;7.30;4.82;;;-1.00;99.90;;;;;;5009078;28;20103;-77
2022/11/19 04:21:49;;;;;;;6.95;4.75;;;-1.00;99.90;;;;;;5009928;28;20508;-75
2022/11/19 04:24:15;;;;;;;5.18;3.53;;;-1.00;99.90;;;;;;5009566;28;20034;-76
2022/11/19 04:26:41;;;;;;;6.95;5.03;;;-1.00;99.90;;;;;;5008935;28;20397;-76
2022/11/19 04:29:07;;;;;;;7.97;4.35;;;-1.00;99.90;;;;;;5008224;28;20038;-76
2022/11/19 04:31:33;;;;;;;6.80;4.57;;;-1.00;99.90;;;;;;5008893;28;20045;-77
2022/11/19 04:33:59;;;;;;;6.95;4.18;;;-1.10;99.90;;;;;;5009213;28;20042;-75
2022/11/19 04:36:24;;;;;;;7.18;4.50;;;-1.10;99.90;;;;;;5012348;28;20400;-77
2022/11/19 04:38:50;;;;;;;6.47;4.03;;;-1.00;99.90;;;;;;5028530;28;20045;-75
2022/11/19 04:41:16;;;;;;;5.40;4.22;;;-1.00;99.90;;;;;;5028756;28;20103;-75
2022/11/19 04:43:41;;;;;;;7.93;4.38;;;-1.00;99.90;;;;;;5027549;28;20068;-77
2022/11/19 04:46:07;;;;;;;8.15;4.97;;;-1.10;99.90;;;;;;5030629;28;20730;-77
2022/11/19 04:48:33;;;;;;;7.45;5.15;;;-1.00;99.90;;;;;;5031996;28;20041;-77
2022/11/19 04:50:59;;;;;;;8.60;4.72;;;-1.00;99.90;;;;;;5032460;28;20167;-75
2022/11/19 04:53:24;;;;;;;5.22;3.65;;;-1.10;99.90;;;;;;5031221;28;20037;-75
2022/11/19 04:55:50;;;;;;;7.00;4.30;;;-1.00;99.90;;;;;;5033913;28;20087;-77
2022/11/19 04:58:16;;;;;;;8.55;4.88;;;-1.00;99.90;;;;;;5033203;28;20065;-77
2022/11/19 05:00:42;;;;;;;6.32;3.60;;;-1.10;99.90;;;;;;5029474;28;20040;-76
2022/11/19 05:03:07;;;;;;;8.48;4.68;;;-1.10;99.90;;;;;;5029068;28;20508;-75
2022/11/19 05:05:33;;;;;;;9.68;5.05;;;-1.10;99.90;;;;;;5027535;28;20040;-77
2022/11/19 05:07:59;;;;;;;5.40;3.50;;;-1.10;99.90;;;;;;5028345;28;20049;-77
2022/11/19 05:10:24;;;;;;;6.07;4.15;;;-1.10;99.90;;;;;;5028711;28;20077;-74
2022/11/19 05:12:50;;;;;;;5.90;4.20;;;-1.10;99.90;;;;;;5027556;28;20049;-76
2022/11/19 05:15:16;;;;;;;5.30;3.75;;;-1.10;99.90;;;;;;5031368;28;20046;-76
2022/11/19 05:17:43;;;;;;;6.05;4.20;;;-1.10;99.90;;;;;;5034375;28;20052;-76
2022/11/19 05:20:09;;;;;;;7.78;4.90;;;-1.20;99.90;;;;;;5013014;28;20041;-76
2022/11/19 05:22:35;;;;;;;6.72;4.72;;;-1.10;99.90;;;;;;5029119;28;20384;-76
2022/11/19 05:25:01;;;;;;;5.88;3.83;;;-1.20;99.90;;;;;;5009438;28;20064;-77
2022/11/19 05:27:27;;;;;;;5.13;3.80;;;-1.10;99.90;;;;;;5026721;28;20050;-77
2022/11/19 05:29:52;;;;;;;6.05;4.00;;;-1.20;99.90;;;;;;5026861;28;20061;-77
2022/11/19 05:32:18;;;;;;;5.97;3.97;;;-1.20;99.90;;;;;;5027181;28;20045;-78
2022/11/19 05:34:44;;;;;;;6.90;3.90;;;-1.20;99.90;;;;;;5020072;28;20044;-77
2022/11/19 05:37:09;;;;;;;7.57;4.38;;;-1.20;99.90;;;;;;5007167;28;20061;-76
2022/11/19 05:39:35;;;;;;;6.32;3.70;;;-1.30;99.90;;;;;;5006955;28;20030;-76
2022/11/19 05:42:01;;;;;;;5.10;4.15;;;-1.20;99.90;;;;;;5007517;28;20053;-77
2022/11/19 05:44:26;;;;;;;10.57;5.13;;;-1.30;99.90;;;;;;5006201;28;20116;-76
2022/11/19 05:46:54;;;;;;;5.32;3.38;;;-1.30;99.90;;;;;;5007239;28;20064;-77
2022/11/19 05:49:19;;;;;;;5.32;3.67;;;-1.30;99.90;;;;;;4989520;28;20263;-78
2022/11/19 05:51:45;;;;;;;7.47;4.57;;;-1.20;99.90;;;;;;5007357;28;20049;-76
2022/11/19 05:54:11;;;;;;;7.30;4.45;;;-1.30;99.90;;;;;;5007220;28;20057;-76
2022/11/19 05:56:37;;;;;;;6.18;4.22;;;-1.30;99.90;;;;;;5006448;28;20607;-77
2022/11/19 05:59:02;;;;;;;6.28;3.90;;;-1.40;99.90;;;;;;5005975;28;20045;-76
2022/11/19 06:01:29;;;;;;;6.22;4.15;;;-1.50;99.90;;;;;;4989324;28;20100;-76
2022/11/19 06:03:55;;;;;;;5.13;3.17;;;-1.40;99.90;;;;;;5006845;28;20077;-76
2022/11/19 06:06:21;;;;;;;6.20;5.18;;;-1.50;99.90;;;;;;5026157;28;20072;-76
2022/11/19 06:08:47;;;;;;;7.70;4.70;;;-1.50;99.90;;;;;;5026972;28;20045;-76
2022/11/19 06:13:58;;;;;;;6.38;3.45;;;-1.50;99.90;;;;;;5025753;28;20045;-76
2022/11/19 06:16:23;;;;;;;7.57;5.80;;;-1.50;99.90;;;;;;5026021;28;20046;-75
2022/11/19 06:18:49;;;;;;;6.93;3.92;;;-1.60;99.90;;;;;;5025983;28;20224;-76
2022/11/19 06:21:15;;;;;;;8.02;4.70;;;-1.60;99.90;;;;;;5027086;28;20043;-76
2022/11/19 06:23:40;;;;;;;6.05;4.47;;;-1.60;99.90;;;;;;5026677;28;20034;-76
2022/11/19 06:26:07;;;;;;;8.13;5.07;;;-1.60;99.90;;;;;;5025874;28;20488;-76
2022/11/19 06:28:33;;;;;;;7.63;4.60;;;-1.60;99.90;;;;;;5007600;28;20041;-76
2022/11/19 06:30:58;;;;;;;6.78;4.22;;;-1.60;99.90;;;;;;5026124;28;20067;-76
2022/11/19 06:33:24;;;;;;;7.47;5.20;;;-1.60;99.90;;;;;;5008476;28;20041;-76
2022/11/19 06:35:50;;;;;;;7.28;5.15;;;-1.60;99.90;;;;;;4992960;28;20041;-76
2022/11/19 06:38:16;;;;;;;6.35;4.65;;;-1.70;99.90;;;;;;5025774;28;20060;-76
2022/11/19 06:40:44;;;;;;;6.50;4.05;;;-1.60;99.90;;;;;;5025738;28;20049;-75
2022/11/19 06:43:10;;;;;;;5.10;3.63;;;-1.70;99.90;;;;;;5024890;28;20045;-76
2022/11/19 06:45:35;;;;;;;8.60;5.25;;;-1.70;99.90;;;;;;5008137;28;20144;-76
2022/11/19 06:48:01;;;;;;;7.75;4.90;;;-1.70;99.90;;;;;;5026025;28;20076;-75
2022/11/19 06:50:27;;;;;;;8.43;4.35;;;-1.60;99.90;;;;;;5008399;28;20076;-76
2022/11/19 06:52:53;;;;;;;8.00;5.40;;;-1.70;99.90;;;;;;5025827;28;20114;-76
2022/11/19 06:55:18;;;;;;;8.30;6.00;;;-1.70;99.90;;;;;;5025271;28;20041;-77
2022/11/19 06:57:44;;;;;;;6.05;4.20;;;-1.70;99.90;;;;;;5025353;28;20045;-77
2022/11/19 07:00:12;;;;;;;7.82;5.13;;;-1.70;99.90;;;;;;5008081;28;20077;-76
2022/11/19 07:02:38;;;;;;;6.93;4.57;;;-1.70;99.90;;;;;;5025856;28;20077;-76
2022/11/19 07:05:04;;;;;;;7.75;5.45;;;-1.80;99.90;;;;;;5024869;28;20490;-75
2022/11/19 07:07:30;;;;;;;6.32;5.55;;;-1.70;99.90;;;;;;5009939;28;20053;-76
2022/11/19 07:09:56;;;;;;;7.40;4.47;;;-1.80;99.90;;;;;;5005996;28;20085;-76
2022/11/19 07:12:22;;;;;;;7.68;5.22;;;-1.80;99.90;;;;;;5005048;28;20053;-75
2022/11/19 07:14:48;;;;;;;7.35;4.95;;;-1.70;99.90;;;;;;4988365;28;20049;-78
2022/11/19 07:17:13;;;;;;;8.63;5.20;;;-1.70;99.90;;;;;;5006051;28;20042;-77
2022/11/19 07:19:39;;;;;;;6.45;4.45;;;-1.70;99.90;;;;;;5005243;28;20056;-75
2022/11/19 07:22:05;;;;;;;8.65;4.80;;;-1.70;99.90;;;;;;5006356;28;20042;-75
2022/11/19 07:24:30;;;;;;;7.07;4.55;;;-1.80;99.90;;;;;;4988194;28;20078;-78
2022/11/19 07:26:56;;;;;;;6.47;4.65;;;-1.70;99.90;;;;;;5006040;28;20100;-77
2022/11/19 07:29:22;;;;;;;7.72;4.65;;;-1.60;99.90;;;;;;5004536;28;20107;-76
2022/11/19 07:31:49;;;;;;;7.00;4.63;;;-1.70;99.90;;;;;;5005898;28;20084;-77
2022/11/19 07:34:16;;;;;;;6.38;4.38;;;-1.70;99.90;;;;;;5006326;28;20045;-75
2022/11/19 07:36:42;;;;;;;6.32;4.88;;;-1.60;99.90;;;;;;4988484;28;20527;-76
2022/11/19 07:39:08;;;;;;;5.32;3.83;;;-1.60;99.90;;;;;;5006168;28;20038;-75
2022/11/19 07:44:18;;;;;;;5.78;3.80;;;-1.50;99.90;;;;;;4986665;28;20050;-77
2022/11/19 07:46:44;;;;;;;7.10;5.15;;;-1.50;99.90;;;;;;4988340;28;20088;-76
2022/11/19 07:49:10;;;;;;;5.80;3.85;;;-1.50;99.90;;;;;;5008707;28;20121;-75
2022/11/19 07:51:35;;;;;;;8.93;5.20;;;-1.50;99.90;;;;;;5009502;28;20050;-76
2022/11/19 07:54:01;;;;;;;10.13;5.00;;;-1.40;99.90;;;;;;4991765;28;20425;-76
2022/11/19 07:56:27;;;;;;;8.57;4.82;;;-1.50;99.90;;;;;;5009205;28;20088;-76
2022/11/19 07:58:52;;;;;;;7.25;5.45;;;-1.50;99.90;;;;;;5008368;28;20404;-77
2022/11/19 08:01:21;;;;;;;9.98;5.60;;;-1.40;99.90;;;;;;5009277;28;20041;-75
2022/11/19 08:03:48;;;;;;;9.25;5.78;;;-1.30;99.90;;;;;;4994884;28;20038;-75
2022/11/19 08:06:16;;;;;;;9.02;5.85;;;-1.30;99.90;;;;;;5011559;28;20046;-75
2022/11/19 08:08:43;;;;;;;8.82;5.38;;;-1.30;99.90;;;;;;5028533;28;20058;-76
2022/11/19 08:11:10;;;;;;;7.53;5.50;;;-1.30;99.90;;;;;;5031468;28;20050;-76
2022/11/19 08:13:38;;;;;;;8.93;5.85;;;-1.20;99.90;;;;;;5029970;28;20079;-75
2022/11/19 08:16:07;;;;;;;9.55;6.25;;;-1.20;99.90;;;;;;5030767;28;20085;-76
2022/11/19 08:18:34;;;;;;;7.32;5.75;;;-1.20;99.90;;;;;;5031081;28;20073;-77
2022/11/19 08:21:10;;;;;;;8.55;6.18;;;-1.10;99.90;;;;;;5029085;28;20475;-77
2022/11/19 08:23:37;;;;;;;10.25;6.60;;;-1.10;99.90;;;;;;5028617;28;20132;-77
2022/11/19 08:26:06;;;;;;;8.82;6.35;;;-1.10;99.90;;;;;;5028982;28;20038;-75
2022/11/19 08:28:32;;;;;;;11.27;6.50;;;-1.00;99.90;;;;;;5009905;28;20500;-75
2022/11/19 08:31:08;;;;;;;9.60;6.72;;;-1.00;99.90;;;;;;5028813;28;20038;-75
2022/11/19 08:33:34;;;;;;;10.70;6.72;;;-0.90;99.90;;;;;;5026792;28;20037;-77
2022/11/19 08:36:00;;;;;;;7.35;5.90;;;-0.90;99.90;;;;;;5008626;28;20065;-76
2022/11/19 08:38:26;;;;;;;10.65;7.55;;;-0.90;99.90;;;;;;5008472;28;20433;-74
2022/11/19 08:42:58;;;;;;;12.73;7.60;;;-0.90;99.90;;;;;;5009061;28;20137;-75
2022/11/19 08:43:38;;;;;;;8.63;5.72;;;-0.90;99.90;;;;;;5007418;28;20053;-76
2022/11/19 08:46:05;;;;;;;9.43;6.60;;;-0.80;99.90;;;;;;5009482;28;20116;-75
2022/11/19 08:48:31;;;;;;;11.27;7.55;;;-0.70;99.90;;;;;;5008244;28;20103;-77
2022/11/19 08:50:57;;;;;;;8.93;6.32;;;-0.80;99.90;;;;;;5008794;28;20133;-74
2022/11/19 08:53:23;;;;;;;9.73;6.80;;;-0.70;99.90;;;;;;5008660;28;20117;-75
2022/11/19 08:56:01;;;;;;;8.98;6.82;;;-0.50;99.90;;;;;;5008891;28;20465;-76
2022/11/19 08:58:27;;;;;;;8.32;6.53;;;-0.50;99.90;;;;;;4989958;28;20066;-78
2022/11/19 09:00:53;;;;;;;9.35;6.90;;;-0.60;99.90;;;;;;5007628;28;20100;-76
2022/11/19 09:03:19;;;;;;;9.88;7.38;;;-0.40;99.90;;;;;;5008448;28;20412;-76
2022/11/19 09:05:45;;;;;;;10.68;7.35;;;-0.40;99.90;;;;;;5007906;28;20050;-75
2022/11/19 09:08:11;;;;;;;8.40;5.32;;;-0.40;99.90;;;;;;5007119;28;20050;-75
2022/11/19 09:10:37;;;;;;;9.95;7.63;;;-0.50;99.90;;;;;;5006886;28;20500;-75
2022/11/19 09:13:06;;;;;;;9.70;6.95;;;-0.30;99.90;;;;;;5006189;28;20104;-75
2022/11/19 09:15:32;;;;;;;11.65;6.75;;;-0.30;99.90;;;;;;5007274;28;20056;-75
2022/11/19 09:17:58;;;;;;;10.93;7.28;;;-0.20;99.90;;;;;;5008978;28;20045;-76
2022/11/19 09:20:24;;;;;;;10.90;7.45;;;-0.20;99.90;;;;;;5007122;28;20042;-78
2022/11/19 09:22:50;;;;;;;10.77;8.20;;;0.00;99.90;;;;;;5008220;28;20254;-76
2022/11/19 09:25:29;;;;;;;7.88;5.80;;;-0.10;99.90;;;;;;5008019;28;20092;-76
2022/11/19 09:27:55;;;;;;;9.05;6.45;;;-0.10;99.90;;;;;;5007377;28;20050;-75
2022/11/19 09:30:20;;;;;;;10.07;5.88;;;0.10;99.90;;;;;;5007610;28;20115;-76
2022/11/19 09:32:46;;;;;;;8.40;6.55;;;0.10;99.90;;;;;;5008363;28;20492;-76
2022/11/19 09:35:12;;;;;;;10.60;6.07;;;0.10;99.90;;;;;;5008203;28;20046;-76
2022/11/19 09:37:38;;;;;;;8.18;6.25;;;0.10;99.90;;;;;;5027454;28;20454;-76
2022/11/19 09:40:04;;;;;;;8.98;6.75;;;0.10;99.90;;;;;;5010149;28;20046;-76
2022/11/19 09:42:35;;;;;;;8.65;6.07;;;0.10;99.90;;;;;;5025912;28;20046;-76
2022/11/19 09:45:12;;;;;;;9.38;6.38;;;0.20;99.90;;;;;;5027705;28;20045;-77
2022/11/19 09:48:00;;;;;;;8.57;6.50;;;0.30;99.90;;;;;;5027687;28;20472;-77
2022/11/19 09:50:34;;;;;;;8.20;5.95;;;0.40;99.90;;;;;;5009793;28;20388;-77
2022/11/19 09:53:15;;;;;;;8.93;6.22;;;0.40;99.90;;;;;;5027522;28;20038;-76
2022/11/19 09:55:44;;;;;;;10.07;6.65;;;0.30;99.90;;;;;;5027366;28;20045;-75
2022/11/19 09:58:20;;;;;;;8.27;6.40;;;0.60;99.90;;;;;;5026355;28;20041;-75
2022/11/19 10:00:46;;;;;;;8.80;6.60;;;0.60;99.90;;;;;;5027455;28;20115;-76
2022/11/19 10:03:19;;;;;;;9.35;6.53;;;0.70;99.90;;;;;;5027061;28;20132;-76
2022/11/19 10:06:11;;;;;;;9.05;6.22;;;0.80;99.90;;;;;;4987979;28;20038;-76
2022/11/19 10:08:57;;;;;;;9.48;6.32;;;0.70;99.90;;;;;;4987674;28;20273;-75
2022/11/19 10:11:28;;;;;;;6.25;5.18;;;0.70;99.90;;;;;;4987429;28;20061;-76
2022/11/19 10:14:06;;;;;;;8.07;6.72;;;0.70;99.90;;;;;;4987039;28;20058;-76
2022/11/19 10:17:04;;;;;;;8.95;6.28;;;0.80;99.90;;;;;;4987940;28;20054;-76
2022/11/19 10:19:53;;;;;;;8.68;6.75;;;0.70;99.90;;;;;;4987682;28;20445;-75
2022/11/19 10:22:26;;;;;;;8.48;5.60;;;0.70;99.90;;;;;;4987161;28;20343;-75
2022/11/19 10:25:14;;;;;;;11.00;5.20;;;0.80;99.90;;;;;;4987467;28;20347;-76
2022/11/19 10:27:59;;;;;;;9.02;6.47;;;1.00;99.90;;;;;;4986276;28;20052;-76
2022/11/19 10:30:27;;;;;;;7.03;4.20;;;1.00;99.90;;;;;;4987426;28;20493;-76
2022/11/19 10:33:04;;;;;;;7.03;5.20;;;1.00;99.90;;;;;;4987779;28;20042;-77
2022/11/19 10:35:43;;;;;;;7.05;4.30;;;1.10;99.90;;;;;;4987217;28;20494;-76
2022/11/19 10:38:21;;;;;;;8.15;5.50;;;1.00;99.90;;;;;;4987152;28;20053;-75
2022/11/19 10:40:57;;;;;;;7.05;5.07;;;1.30;99.90;;;;;;4988008;28;20485;-76
2022/11/19 10:43:33;;;;;;;6.57;5.22;;;1.30;99.90;;;;;;4986620;28;20060;-75
2022/11/19 10:46:01;;;;;;;6.28;4.47;;;1.40;99.90;;;;;;4987255;28;20052;-76
2022/11/19 10:48:42;;;;;;;11.38;5.60;;;1.30;99.90;;;;;;4987277;28;20038;-76
2022/11/19 10:51:27;;;;;;;6.95;5.30;;;1.30;99.90;;;;;;4987994;28;20057;-76
2022/11/19 10:53:54;;;;;;;6.63;5.82;;;1.40;99.90;;;;;;4988567;28;20270;-75
2022/11/19 10:56:36;;;;;;;77.25;7.57;;;1.60;99.90;;;;;;4988502;28;20042;-75
2022/11/19 10:59:15;;;;;;;6.07;4.57;;;1.50;99.90;;;;;;4994436;28;20042;-77
2022/11/19 11:01:43;;;;;;;8.95;4.93;;;1.60;99.90;;;;;;4995209;28;20044;-76
2022/11/19 11:04:12;;;;;;;7.80;5.70;;;1.50;99.90;;;;;;4989731;28;20038;-77
2022/11/19 11:06:56;;;;;;;6.65;5.45;;;1.60;99.90;;;;;;5011733;28;20041;-76
2022/11/19 11:09:33;;;;;;;8.63;5.68;;;1.60;99.90;;;;;;5029788;28;20089;-75
2022/11/19 11:15:14;;;;;;;7.05;4.72;;;1.50;99.90;;;;;;5031794;28;20046;-76
2022/11/19 11:17:41;;;;;;;8.35;5.13;;;1.70;99.90;;;;;;5028323;28;20527;-76
2022/11/19 11:20:16;;;;;;;7.63;5.10;;;1.80;99.90;;;;;;5026231;28;20048;-76
2022/11/19 11:22:42;;;;;;;7.22;4.60;;;1.90;99.90;;;;;;5026300;28;20049;-77
2022/11/19 11:25:26;;;;;;;5.85;4.57;;;1.90;99.90;;;;;;5030276;28;20056;-76
2022/11/19 11:28:12;;;;;;;6.78;5.05;;;2.00;99.90;;;;;;5029447;28;20654;-75
2022/11/19 11:30:55;;;;;;;8.07;4.75;;;2.00;99.90;;;;;;5029982;28;20064;-76
2022/11/19 11:33:39;;;;;;;8.45;4.80;;;2.20;99.90;;;;;;5024299;28;20167;-75
2022/11/19 11:36:09;;;;;;;7.32;5.57;;;2.10;99.90;;;;;;5010164;28;20132;-78
2022/11/19 11:38:42;;;;;;;7.72;5.82;;;2.20;99.90;;;;;;5009946;28;20057;-77
2022/11/19 11:41:12;;;;;;;7.85;4.35;;;2.20;99.90;;;;;;4992496;28;20053;-76
2022/11/19 11:43:40;;;;;;;7.57;5.40;;;2.10;99.90;;;;;;4991525;28;20438;-75
2022/11/19 11:46:09;;;;;;;6.40;4.50;;;2.20;99.90;;;;;;4992488;28;20069;-76
2022/11/19 11:48:48;;;;;;;6.47;4.97;;;2.20;99.90;;;;;;5010255;28;20096;-76
2022/11/19 11:51:34;;;;;;;27.65;6.85;;;2.30;99.90;;;;;;5010591;28;20048;-75
2022/11/19 11:54:18;;;;;;;19.90;5.57;;;2.30;99.90;;;;;;5009787;28;20046;-75
2022/11/19 11:56:44;;;;;;;9.05;5.45;;;2.20;99.90;;;;;;5009250;28;20112;-77
2022/11/19 11:59:22;;;;;;;7.57;4.35;;;2.30;99.90;;;;;;4976151;28;20116;-76
2022/11/19 12:02:04;;;;;;;5.85;3.75;;;2.30;99.90;;;;;;5009272;28;20298;-77
2022/11/19 12:04:30;;;;;;;5.25;4.25;;;2.10;99.90;;;;;;5023860;28;20047;-75
2022/11/19 12:06:56;;;;;;;7.18;4.30;;;2.20;99.90;;;;;;5029569;28;20046;-77
2022/11/19 12:09:29;;;;;;;5.50;4.57;;;2.20;99.90;;;;;;5028589;28;20111;-75
2022/11/19 12:12:02;;;;;;;8.68;4.30;;;2.50;99.90;;;;;;5028505;28;20462;-75
2022/11/19 12:14:31;;;;;;;7.72;5.35;;;2.50;99.90;;;;;;5029111;28;20222;-76
2022/11/19 12:17:21;;;;;;;6.28;4.75;;;2.50;99.90;;;;;;5029231;28;20053;-75
2022/11/19 12:20:08;;;;;;;7.15;5.15;;;2.60;99.90;;;;;;5029573;28;20038;-75
2022/11/19 12:22:39;;;;;;;5.32;4.30;;;2.50;99.90;;;;;;5028780;28;20049;-75
2022/11/19 12:25:14;;;;;;;4.82;3.83;;;2.50;99.90;;;;;;5028960;28;20042;-76
2022/11/19 12:27:57;;;;;;;11.45;6.57;;;2.60;99.90;;;;;;5027527;28;20053;-76
2022/11/19 12:30:34;;;;;;;6.72;5.47;;;2.50;99.90;;;;;;5028966;28;20053;-75
2022/11/19 12:33:32;;;;;;;5.50;3.65;;;2.70;99.90;;;;;;5023919;28;20049;-75
2022/11/19 12:36:14;;;;;;;6.47;3.92;;;2.60;99.90;;;;;;4987451;28;20096;-76
2022/11/19 12:39:10;;;;;;;6.00;4.50;;;2.50;99.90;;;;;;5008348;28;20108;-75
2022/11/19 12:42:01;;;;;;;6.88;5.25;;;2.60;99.90;;;;;;5008009;28;20053;-76
2022/11/19 12:44:55;;;;;;;5.93;4.20;;;2.70;99.90;;;;;;5009314;28;20124;-75
2022/11/19 12:47:52;;;;;;;6.43;4.30;;;2.70;99.90;;;;;;4999353;28;20065;-77
2022/11/19 12:51:13;;;;;;;6.45;4.53;;;2.70;99.90;;;;;;4978270;28;20481;-77
2022/11/19 12:54:13;;;;;;;6.25;4.25;;;2.80;99.90;;;;;;4929805;29;20048;-76
2022/11/19 12:57:05;;;;;;;5.90;4.00;;;2.90;99.90;;;;;;4991393;28;20321;-77
2022/11/19 12:59:54;;;;;;;6.25;4.18;;;2.90;99.90;;;;;;4990324;28;20096;-75
2022/11/19 13:03:05;;;;;;;9.40;4.30;;;2.80;99.90;;;;;;4990267;28;20046;-76
2022/11/19 13:05:53;;;;;;;6.80;4.53;;;2.80;99.90;;;;;;4988160;28;20050;-76
2022/11/19 13:08:35;;;;;;;5.97;4.18;;;2.90;99.90;;;;;;5007940;28;20125;-77
2022/11/19 13:11:11;;;;;;;8.95;4.55;;;3.00;99.90;;;;;;5008293;28;20042;-76
2022/11/19 13:13:43;;;;;;;7.53;4.45;;;3.00;99.90;;;;;;4991189;28;20346;-76
2022/11/19 13:16:13;;;;;;;6.47;4.05;;;2.90;99.90;;;;;;5008350;28;20524;-76
2022/11/19 13:18:42;;;;;;;9.48;5.28;;;2.90;99.90;;;;;;4991012;28;20042;-75
2022/11/19 13:21:15;;;;;;;4.90;4.15;;;3.00;99.90;;;;;;5008588;28;20050;-76
2022/11/19 13:23:46;;;;;;;4.13;3.28;;;3.00;99.90;;;;;;5008888;28;20561;-76
2022/11/19 13:26:22;;;;;;;5.55;3.22;;;3.00;99.90;;;;;;4989748;28;20038;-76
2022/11/19 13:29:25;;;;;;;5.22;3.70;;;3.00;99.90;;;;;;5008942;28;20053;-76
2022/11/19 13:32:12;;;;;;;6.03;4.45;;;3.00;99.90;;;;;;4996740;28;20400;-74
2022/11/19 13:35:13;;;;;;;5.43;3.60;;;3.00;99.90;;;;;;4983832;28;20057;-75
2022/11/19 13:37:38;;;;;;;6.43;4.97;;;3.00;99.90;;;;;;5031288;28;20073;-76
2022/11/19 13:40:32;;;;;;;5.25;4.05;;;3.00;99.90;;;;;;5030526;28;20464;-76
2022/11/19 13:45:50;;;;;;;16.75;4.85;;;3.10;99.90;;;;;;5028207;28;20049;-75